createdAt,value
2018-12-06T00:01:06.331Z,101981.15
2018-12-06T00:03:38.577Z,101975.24
2018-12-06T00:06:10.025Z,101973.92
2018-12-06T00:08:39.828Z,101956.00
2018-12-06T00:11:15.347Z,101970.97
2018-12-06T00:13:44.202Z,101982.04
2018-12-06T00:16:13.130Z,101991.09
2018-12-06T00:18:41.962Z,101979.09
2018-12-06T00:21:16.898Z,101983.40
2018-12-06T00:23:46.578Z,101973.57
2018-12-06T00:26:15.522Z,101980.02
2018-12-06T00:28:44.496Z,101976.21
2018-12-06T00:31:14.078Z,101970.23
2018-12-06T00:33:42.890Z,101979.20
2018-12-06T00:36:11.867Z,101968.98
2018-12-06T00:38:40.901Z,101965.14
2018-12-06T00:41:09.974Z,101964.31
2018-12-06T00:43:38.914Z,101979.28
2018-12-06T00:46:07.898Z,101963.50
2018-12-06T00:48:36.803Z,101975.86
2018-12-06T00:51:05.675Z,101988.71
2018-12-06T00:53:34.901Z,101977.56
2018-12-06T00:56:04.671Z,101992.06
2018-12-06T00:58:36.020Z,102005.80
2018-12-06T01:01:06.485Z,101997.22
2018-12-06T01:03:39.300Z,101983.58
2018-12-06T01:06:08.235Z,101996.44
2018-12-06T01:08:38.618Z,101970.38
2018-12-06T01:11:09.694Z,101975.04
2018-12-06T01:13:38.534Z,101994.77
2018-12-06T01:16:07.730Z,102002.39
2018-12-06T01:18:38.193Z,102010.08
2018-12-06T01:21:07.954Z,102010.11
2018-12-06T01:23:44.640Z,102027.98
2018-12-06T01:26:19.012Z,102021.97
2018-12-06T01:28:49.370Z,102019.52
2018-12-06T01:31:24.268Z,102012.28
2018-12-06T01:33:53.703Z,102011.42
2018-12-06T01:36:24.028Z,102002.45
2018-12-06T01:38:53.438Z,101999.46
2018-12-06T01:41:22.426Z,102013.95
2018-12-06T01:43:55.927Z,102015.70
2018-12-06T01:46:29.808Z,101992.55
2018-12-06T01:48:59.282Z,101989.20
2018-12-06T01:51:29.837Z,101993.02
2018-12-06T01:53:58.650Z,101986.61
2018-12-06T01:56:27.762Z,101999.46
2018-12-06T01:59:00.219Z,101993.94
2018-12-06T02:01:30.102Z,101996.93
2018-12-06T02:04:01.108Z,101985.39
2018-12-06T02:06:32.270Z,102012.77
2018-12-06T02:09:02.796Z,102012.77
2018-12-06T02:11:33.698Z,102011.95
2018-12-06T02:14:07.196Z,102007.24
2018-12-06T02:16:36.726Z,102011.98
2018-12-06T02:19:05.594Z,102024.73
2018-12-06T02:21:34.498Z,102000.84
2018-12-06T02:24:06.474Z,102004.28
2018-12-06T02:26:35.794Z,101994.06
2018-12-06T02:29:06.904Z,101999.22
2018-12-06T02:31:36.791Z,102028.66
2018-12-06T02:34:12.218Z,101986.77
2018-12-06T02:36:41.109Z,102003.46
2018-12-06T02:39:10.067Z,102003.48
2018-12-06T02:41:39.433Z,102005.20
2018-12-06T02:44:11.519Z,102024.84
2018-12-06T02:46:42.421Z,101991.13
2018-12-06T02:49:13.265Z,101999.25
2018-12-06T02:51:43.249Z,102001.84
2018-12-06T02:54:14.615Z,102003.55
2018-12-06T02:56:43.552Z,101963.77
2018-12-06T02:59:13.977Z,101994.52
2018-12-06T03:01:43.305Z,102000.07
2018-12-06T03:04:17.814Z,102010.33
2018-12-06T03:06:50.419Z,102003.48
2018-12-06T03:09:21.218Z,102038.03
2018-12-06T03:11:51.619Z,102032.88
2018-12-06T03:14:25.032Z,102021.77
2018-12-06T03:16:57.553Z,102032.88
2018-12-06T03:19:27.675Z,101993.94
2018-12-06T03:21:56.609Z,102034.98
2018-12-06T03:24:25.667Z,102025.58
2018-12-06T03:26:54.510Z,102033.30
2018-12-06T03:29:24.363Z,102034.98
2018-12-06T03:31:54.589Z,102044.35
2018-12-06T03:34:23.842Z,102029.37
2018-12-06T03:36:52.669Z,102025.52
2018-12-06T03:39:21.549Z,102040.48
2018-12-06T03:41:53.535Z,102047.31
2018-12-06T03:44:26.183Z,102021.28
2018-12-06T03:46:56.902Z,102046.48
2018-12-06T03:49:34.971Z,102050.76
2018-12-06T03:52:05.661Z,102028.12
2018-12-06T03:54:36.600Z,102043.89
2018-12-06T03:57:12.631Z,101997.33
2018-12-06T03:59:41.591Z,102052.89
2018-12-06T04:02:10.486Z,102037.55
2018-12-06T04:04:39.646Z,102055.89
2018-12-06T04:07:09.134Z,102073.83
2018-12-06T04:09:39.834Z,102046.91
2018-12-06T04:12:12.020Z,102058.42
2018-12-06T04:14:42.146Z,102046.52
2018-12-06T04:17:11.006Z,102061.41
2018-12-06T04:23:04.413Z,102080.66
2018-12-06T04:25:34.074Z,102061.89
2018-12-06T04:28:05.692Z,102059.30
2018-12-06T04:30:38.150Z,102067.39
2018-12-06T04:33:20.701Z,102047.77
2018-12-06T04:35:59.624Z,102030.25
2018-12-06T04:38:33.696Z,102040.53
2018-12-06T04:41:05.689Z,102038.83
2018-12-06T04:43:36.809Z,102090.94
2018-12-06T04:46:05.945Z,102055.52
2018-12-06T04:48:34.790Z,102076.82
2018-12-06T04:51:04.176Z,102048.20
2018-12-06T04:53:33.030Z,102120.84
2018-12-06T04:56:04.060Z,102073.45
2018-12-06T04:58:33.614Z,102076.88
2018-12-06T05:01:02.495Z,102077.73
2018-12-06T05:03:31.573Z,102099.09
2018-12-06T05:06:00.504Z,102081.55
2018-12-06T05:08:29.361Z,102098.63
2018-12-06T05:11:06.996Z,102115.30
2018-12-06T05:13:36.181Z,102104.19
2018-12-06T05:16:13.080Z,102079.89
2018-12-06T05:18:43.793Z,102124.73
2018-12-06T05:21:21.560Z,102119.64
2018-12-06T05:23:58.479Z,102109.37
2018-12-06T05:26:37.340Z,102101.65
2018-12-06T05:29:10.174Z,102104.69
2018-12-06T05:31:41.700Z,102069.21
2018-12-06T05:34:14.759Z,102110.64
2018-12-06T05:36:44.463Z,102105.12
2018-12-06T05:39:13.397Z,102115.75
2018-12-06T05:41:42.341Z,102114.04
2018-12-06T05:44:14.645Z,102108.94
2018-12-06T05:46:46.337Z,102126.05
2018-12-06T05:49:16.018Z,102116.62
2018-12-06T05:51:45.058Z,102128.61
2018-12-06T05:54:15.409Z,102124.72
2018-12-06T05:56:44.280Z,102126.00
2018-12-06T05:59:13.130Z,102129.39
2018-12-06T06:01:42.378Z,102139.22
2018-12-06T06:04:14.137Z,102144.37
2018-12-06T06:06:43.503Z,102148.17
2018-12-06T06:09:12.721Z,102146.45
2018-12-06T06:11:41.602Z,102153.70
2018-12-06T06:14:11.303Z,102146.45
2018-12-06T06:16:40.197Z,102153.30
2018-12-06T06:19:10.248Z,102158.02
2018-12-06T06:21:40.114Z,102168.25
2018-12-06T06:24:09.052Z,102153.30
2018-12-06T06:26:38.243Z,102167.42
2018-12-06T06:29:08.124Z,102149.91
2018-12-06T06:31:37.212Z,102148.64
2018-12-06T06:34:06.150Z,102162.72
2018-12-06T06:36:35.859Z,102152.87
2018-12-06T06:39:14.471Z,102157.14
2018-12-06T06:41:48.823Z,102175.04
2018-12-06T06:44:23.583Z,102171.58
2018-12-06T06:46:59.114Z,102168.16
2018-12-06T06:49:27.993Z,102179.70
2018-12-06T06:52:01.496Z,102139.55
2018-12-06T06:54:31.635Z,102151.97
2018-12-06T06:57:02.315Z,102166.45
2018-12-06T06:59:39.534Z,102158.73
2018-12-06T07:02:11.190Z,102160.84
2018-12-06T07:04:46.305Z,102155.72
2018-12-06T07:07:15.201Z,102160.84
2018-12-06T07:09:44.367Z,102146.27
2018-12-06T07:12:16.605Z,102154.36
2018-12-06T07:14:49.304Z,102157.39
2018-12-06T07:17:20.956Z,102153.98
2018-12-06T07:19:49.986Z,102141.50
2018-12-06T07:22:19.940Z,102147.03
2018-12-06T07:24:50.985Z,102137.20
2018-12-06T07:27:26.563Z,102151.36
2018-12-06T07:30:12.780Z,102153.38
2018-12-06T07:39:40.844Z,102137.98
2018-12-06T07:42:12.126Z,102141.80
2018-12-06T07:44:54.830Z,102147.66
2018-12-06T07:47:28.377Z,102162.92
2018-12-06T07:50:01.095Z,102159.56
2018-12-06T07:52:31.170Z,102141.28
2018-12-06T07:55:02.013Z,102146.08
2018-12-06T07:57:31.293Z,102155.00
2018-12-06T08:00:00.853Z,102155.00
2018-12-06T08:02:29.788Z,102171.28
2018-12-06T08:04:59.774Z,102153.68
2018-12-06T08:07:29.469Z,102121.49
2018-12-06T08:09:59.809Z,102155.53
2018-12-06T08:12:29.786Z,102157.63
2018-12-06T08:14:59.172Z,102144.67
2018-12-06T08:17:28.988Z,102138.69
2018-12-06T08:22:38.133Z,102144.03
2018-12-06T08:25:12.135Z,102164.83
2018-12-06T08:27:41.005Z,102120.28
2018-12-06T08:30:10.299Z,102153.74
2018-12-06T08:32:42.806Z,102128.53
2018-12-06T08:35:13.337Z,102118.34
2018-12-06T08:37:44.773Z,102125.72
2018-12-06T08:40:18.036Z,102131.09
2018-12-06T08:42:51.269Z,102140.55
2018-12-06T08:45:20.536Z,102126.08
2018-12-06T08:47:50.000Z,102117.75
2018-12-06T08:50:21.902Z,102112.58
2018-12-06T08:52:56.509Z,102124.00
2018-12-06T08:55:29.658Z,102111.39
2018-12-06T08:57:59.579Z,102123.48
2018-12-06T09:00:28.975Z,102119.19
2018-12-06T09:02:57.895Z,102098.44
2018-12-06T09:05:26.853Z,102131.14
2018-12-06T09:07:56.218Z,102101.78
2018-12-06T09:10:26.182Z,102084.30
2018-12-06T09:12:58.593Z,102103.16
2018-12-06T09:15:28.259Z,102109.72
2018-12-06T09:17:57.658Z,102090.74
2018-12-06T09:20:28.295Z,102077.13
2018-12-06T09:25:51.010Z,102068.84
2018-12-06T09:28:21.165Z,102089.45
2018-12-06T09:31:01.193Z,102082.59
2018-12-06T09:33:33.580Z,102050.36
2018-12-06T09:36:09.845Z,102083.13
2018-12-06T09:38:44.811Z,102068.26
2018-12-06T09:41:17.558Z,102060.30
2018-12-06T09:43:54.590Z,102060.50
2018-12-06T09:46:32.599Z,102050.52
2018-12-06T09:49:11.224Z,102056.64
2018-12-06T09:51:44.875Z,102054.69
2018-12-06T09:54:20.264Z,102059.52
2018-12-06T09:56:56.693Z,102044.08
2018-12-06T09:59:28.398Z,102053.45
2018-12-06T10:02:04.790Z,102047.20
2018-12-06T10:04:41.579Z,102013.48
2018-12-06T10:07:11.839Z,102013.08
2018-12-06T10:09:47.384Z,102052.46
2018-12-06T10:12:21.690Z,102033.37
2018-12-06T10:15:03.086Z,102012.24
2018-12-06T10:17:32.922Z,102016.02
2018-12-06T10:20:03.241Z,102009.28
2018-12-06T10:22:32.101Z,101975.86
2018-12-06T10:25:01.419Z,102027.46
2018-12-06T10:27:30.537Z,102021.52
2018-12-06T10:30:05.457Z,101965.35
2018-12-06T10:32:34.863Z,101960.91
2018-12-06T10:35:04.742Z,101998.05
2018-12-06T10:37:34.443Z,101996.42
2018-12-06T10:40:06.032Z,101990.91
2018-12-06T10:42:35.070Z,102003.17
2018-12-06T10:45:05.758Z,101983.72
2018-12-06T10:47:37.280Z,101956.78
2018-12-06T10:50:10.890Z,101974.02
2018-12-06T10:52:41.733Z,101975.64
2018-12-06T10:55:11.178Z,102028.11
2018-12-06T10:57:41.506Z,102013.83
2018-12-06T11:00:14.973Z,102021.62
2018-12-06T11:02:49.375Z,102003.09
2018-12-06T11:05:21.176Z,101990.87
2018-12-06T11:07:52.435Z,102020.67
2018-12-06T11:10:23.506Z,102032.30
2018-12-06T11:13:00.327Z,102009.51
2018-12-06T11:18:23.074Z,102001.88
2018-12-06T11:20:53.159Z,101982.80
2018-12-06T11:23:24.484Z,101994.84
2018-12-06T11:25:56.912Z,102007.27
2018-12-06T11:28:29.054Z,101973.11
2018-12-06T11:30:59.886Z,101980.70
2018-12-06T11:33:31.639Z,101995.22
2018-12-06T11:36:00.582Z,102006.48
2018-12-06T11:38:30.755Z,102001.58
2018-12-06T11:41:02.876Z,102006.65
2018-12-06T11:43:33.942Z,101994.70
2018-12-06T11:46:04.058Z,102020.26
2018-12-06T11:48:36.642Z,102009.05
2018-12-06T11:51:08.644Z,101984.99
2018-12-06T11:53:43.393Z,101983.62
2018-12-06T11:56:17.985Z,101983.52
2018-12-06T11:58:53.427Z,101944.20
2018-12-06T12:01:26.347Z,101963.34
2018-12-06T12:03:57.186Z,102002.36
2018-12-06T12:06:28.412Z,102023.72
2018-12-06T12:08:57.460Z,102000.64
2018-12-06T12:11:31.025Z,102019.94
2018-12-06T12:14:00.369Z,102010.65
2018-12-06T12:16:32.102Z,102025.16
2018-12-06T12:19:01.339Z,102021.56
2018-12-06T12:21:35.634Z,102017.77
2018-12-06T12:24:05.785Z,102025.61
2018-12-06T12:26:38.576Z,102033.25
2018-12-06T12:29:07.722Z,102019.59
2018-12-06T12:31:40.677Z,102000.24
2018-12-06T12:34:12.597Z,102016.90
2018-12-06T12:36:42.416Z,101992.34
2018-12-06T12:39:14.735Z,101982.37
2018-12-06T12:41:45.510Z,102012.73
2018-12-06T12:44:17.819Z,101990.83
2018-12-06T12:46:46.798Z,101993.52
2018-12-06T12:49:16.750Z,102007.30
2018-12-06T12:51:48.045Z,101979.86
2018-12-06T12:54:18.675Z,102020.20
2018-12-06T12:56:48.642Z,101995.78
2018-12-06T12:59:17.659Z,102035.13
2018-12-06T13:01:55.600Z,102001.78
2018-12-06T13:04:25.806Z,101989.91
2018-12-06T13:06:55.159Z,102003.74
2018-12-06T13:09:26.221Z,102028.95
2018-12-06T13:11:56.498Z,101971.61
2018-12-06T13:14:25.982Z,101966.53
2018-12-06T13:16:57.432Z,102007.11
2018-12-06T13:19:26.533Z,102008.86
2018-12-06T13:22:00.074Z,102018.99
2018-12-06T13:24:31.505Z,102020.43
2018-12-06T13:27:05.735Z,102012.79
2018-12-06T13:29:37.487Z,101998.76
2018-12-06T13:32:07.939Z,102017.66
2018-12-06T13:34:37.531Z,102002.25
2018-12-06T13:37:09.044Z,102014.67
2018-12-06T13:39:39.094Z,102037.45
2018-12-06T13:42:10.406Z,102037.35
2018-12-06T13:44:44.156Z,102020.22
2018-12-06T13:47:18.495Z,102030.55
2018-12-06T13:49:51.348Z,102001.07
2018-12-06T13:52:22.809Z,102013.59
2018-12-06T13:54:55.869Z,102023.81
2018-12-06T13:57:31.666Z,102014.12
2018-12-06T14:00:02.306Z,102020.64
2018-12-06T14:02:32.463Z,102014.70
2018-12-06T14:05:02.574Z,102016.41
2018-12-06T14:07:31.633Z,102024.54
2018-12-06T14:10:02.138Z,102034.72
2018-12-06T14:12:32.018Z,102015.55
2018-12-06T14:15:00.949Z,102027.11
2018-12-06T14:17:32.005Z,102017.73
2018-12-06T14:22:42.114Z,102040.52
2018-12-06T14:25:11.002Z,102032.43
2018-12-06T14:27:40.071Z,102043.59
2018-12-06T14:30:09.230Z,102043.16
2018-12-06T14:32:38.872Z,102053.48
2018-12-06T14:35:08.754Z,102017.50
2018-12-06T14:37:38.666Z,102042.31
2018-12-06T14:40:07.721Z,102057.33
2018-12-06T14:42:38.040Z,102049.20
2018-12-06T14:45:10.355Z,102058.09
2018-12-06T14:47:42.666Z,102052.70
2018-12-06T14:50:12.449Z,102052.70
2018-12-06T14:52:42.302Z,102039.48
2018-12-06T14:55:11.939Z,102064.29
2018-12-06T14:57:41.979Z,102058.73
2018-12-06T15:00:12.822Z,102032.25
2018-12-06T15:02:42.557Z,102051.11
2018-12-06T15:05:11.719Z,102051.07
2018-12-06T15:07:41.675Z,102050.25
2018-12-06T15:10:10.621Z,102045.20
2018-12-06T15:12:39.537Z,102047.77
2018-12-06T15:15:09.486Z,102049.05
2018-12-06T15:17:38.378Z,102053.89
2018-12-06T15:20:08.385Z,102044.13
2018-12-06T15:22:40.448Z,102054.45
2018-12-06T15:25:10.485Z,102052.34
2018-12-06T15:27:39.845Z,102051.95
2018-12-06T15:30:11.978Z,102063.95
2018-12-06T15:32:41.252Z,102047.71
2018-12-06T15:35:12.191Z,102064.44
2018-12-06T15:37:44.253Z,102058.88
2018-12-06T15:40:14.163Z,102059.76
2018-12-06T15:42:44.207Z,102077.27
2018-12-06T15:45:15.853Z,102059.79
2018-12-06T15:47:50.584Z,102062.38
2018-12-06T15:50:22.333Z,102076.02
2018-12-06T15:52:53.993Z,102088.83
2018-12-06T15:58:10.194Z,102087.10
2018-12-06T16:00:40.547Z,102082.80
2018-12-06T16:03:12.143Z,102082.38
2018-12-06T16:05:43.485Z,102082.40
2018-12-06T16:08:19.243Z,102089.69
2018-12-06T16:10:49.390Z,102082.93
2018-12-06T16:13:19.196Z,102082.50
2018-12-06T16:15:48.620Z,102091.94
2018-12-06T16:18:18.164Z,102077.02
2018-12-06T16:20:47.640Z,102093.67
2018-12-06T16:23:17.178Z,102078.75
2018-12-06T16:25:46.662Z,102095.84
2018-12-06T16:28:16.049Z,102081.31
2018-12-06T16:30:45.563Z,102097.58
2018-12-06T16:33:15.286Z,102097.64
2018-12-06T16:35:46.445Z,102089.55
2018-12-06T16:38:17.542Z,102094.67
2018-12-06T16:40:47.209Z,102098.95
2018-12-06T16:43:16.750Z,102107.48
2018-12-06T16:48:47.928Z,102116.91
2018-12-06T16:51:21.926Z,102114.78
2018-12-06T16:54:18.066Z,102121.20
2018-12-06T16:56:58.480Z,102131.05
2018-12-06T16:59:29.400Z,102132.33
2018-12-06T17:02:00.802Z,102143.83
2018-12-06T17:04:34.969Z,102143.00
2018-12-06T17:07:14.388Z,102141.30
2018-12-06T17:09:51.754Z,102138.31
2018-12-06T17:12:31.956Z,102141.70
2018-12-06T17:15:08.992Z,102143.44
2018-12-06T17:17:47.394Z,102141.28
2018-12-06T17:20:22.487Z,102144.72
2018-12-06T17:22:53.718Z,102148.13
2018-12-06T17:25:23.434Z,102154.52
2018-12-06T17:27:54.019Z,102157.06
2018-12-06T17:30:27.565Z,102161.33
2018-12-06T17:33:02.448Z,102155.73
2018-12-06T17:35:37.420Z,102154.47
2018-12-06T17:38:09.480Z,102148.06
2018-12-06T17:40:39.211Z,102157.48
2018-12-06T17:43:09.018Z,102159.20
2018-12-06T17:45:44.789Z,102159.20
2018-12-06T17:48:18.861Z,102159.18
2018-12-06T17:50:48.548Z,102106.73
2018-12-06T17:53:21.845Z,102157.48
2018-12-06T17:55:56.594Z,102161.77
2018-12-06T17:58:26.189Z,102159.16
2018-12-06T18:00:58.186Z,102155.75
2018-12-06T18:03:28.077Z,102155.73
2018-12-06T18:05:57.766Z,102156.13
2018-12-06T18:08:27.454Z,102158.70
2018-12-06T18:10:57.815Z,102158.75
2018-12-06T18:13:29.219Z,102155.34
2018-12-06T18:16:00.199Z,102154.52
2018-12-06T18:18:29.552Z,102147.69
2018-12-06T18:21:01.467Z,102155.37
2018-12-06T18:23:31.867Z,102149.40
2018-12-06T18:26:03.694Z,102149.80
2018-12-06T18:28:37.748Z,102159.61
2018-12-06T18:31:07.919Z,102156.22
2018-12-06T18:33:40.970Z,102154.48
2018-12-06T18:36:17.347Z,102153.66
2018-12-06T18:38:46.419Z,102151.11
2018-12-06T18:41:18.212Z,102151.97
2018-12-06T18:43:53.824Z,102154.09
2018-12-06T18:46:30.684Z,102151.09
2018-12-06T18:49:12.609Z,102150.24
2018-12-06T18:51:49.168Z,102153.65
2018-12-06T18:54:26.947Z,102154.50
2018-12-06T18:57:05.106Z,102151.94
2018-12-06T18:59:38.599Z,102150.22
2018-12-06T19:02:10.342Z,102152.34
2018-12-06T19:04:40.891Z,102148.97
2018-12-06T19:07:17.611Z,102144.70
2018-12-06T19:09:49.471Z,102150.66
2018-12-06T19:15:02.508Z,102143.86
2018-12-06T19:17:40.782Z,102141.28
2018-12-06T19:20:12.226Z,102139.59
2018-12-06T19:22:41.920Z,102135.75
2018-12-06T19:25:11.957Z,102135.33
2018-12-06T19:27:45.914Z,102131.92
2018-12-06T19:30:16.410Z,102133.62
2018-12-06T19:33:03.224Z,102135.75
2018-12-06T19:35:32.861Z,102137.03
2018-12-06T19:38:03.064Z,102137.02
2018-12-06T19:40:32.527Z,102128.06
2018-12-06T19:43:01.517Z,102126.34
2018-12-06T19:45:32.931Z,102120.84
2018-12-06T19:48:02.445Z,102122.09
2018-12-06T19:50:32.620Z,102131.91
2018-12-06T19:53:04.404Z,102133.19
2018-12-06T19:55:33.314Z,102128.93
2018-12-06T19:58:02.895Z,102134.03
2018-12-06T20:00:36.155Z,102131.93
2018-12-06T20:03:07.004Z,102132.34
2018-12-06T20:05:40.015Z,102130.66
2018-12-06T20:08:09.731Z,102129.80
2018-12-06T20:10:41.247Z,102134.05
2018-12-06T20:13:13.572Z,102131.50
2018-12-06T20:15:44.824Z,102135.31
2018-12-06T20:18:20.646Z,102135.31
2018-12-06T20:20:53.007Z,102136.59
2018-12-06T20:23:22.567Z,102139.59
2018-12-06T20:25:53.752Z,102140.88
2018-12-06T20:28:26.442Z,102142.58
2018-12-06T20:30:56.289Z,102152.37
2018-12-06T20:33:27.600Z,102147.27
2018-12-06T20:36:01.714Z,102148.13
2018-12-06T20:38:31.784Z,102140.88
2018-12-06T20:41:04.672Z,102152.80
2018-12-06T20:43:43.816Z,102147.28
2018-12-06T20:46:15.490Z,102153.20
2018-12-06T20:48:47.681Z,102154.41
2018-12-06T20:51:18.102Z,102151.45
2018-12-06T20:53:48.396Z,102156.11
2018-12-06T20:56:19.662Z,102156.90
2018-12-06T21:02:24.136Z,102156.55
2018-12-06T21:05:07.965Z,102158.98
2018-12-06T21:07:52.711Z,102160.76
2018-12-06T21:10:37.623Z,102161.55
2018-12-06T21:13:20.019Z,102166.69
2018-12-06T21:15:56.021Z,102169.05
2018-12-06T21:18:42.628Z,102169.91
2018-12-06T21:21:37.640Z,102167.28
2018-12-06T21:24:26.002Z,102170.26
2018-12-06T21:27:09.221Z,102166.83
2018-12-06T21:32:43.583Z,102162.55
2018-12-06T21:35:53.783Z,102160.77
2018-12-06T21:38:32.427Z,102163.05
2018-12-06T21:41:13.483Z,102157.18
2018-12-06T21:43:51.303Z,102155.80
2018-12-06T21:46:32.705Z,102161.44
2018-12-06T21:49:25.827Z,102152.80
2018-12-06T21:52:10.723Z,102149.77
2018-12-06T21:54:46.566Z,102146.38
2018-12-06T21:57:28.980Z,102145.50
2018-12-06T22:00:13.296Z,102145.91
2018-12-06T22:05:49.113Z,102139.92
2018-12-06T22:08:51.352Z,102145.45
2018-12-06T22:11:32.637Z,102145.30
2018-12-06T22:20:46.715Z,102150.98
2018-12-06T22:26:43.279Z,102150.88
2018-12-06T22:29:27.262Z,102148.22
2018-12-06T22:32:09.542Z,102133.75
2018-12-06T22:34:57.902Z,102143.56
2018-12-06T22:37:54.882Z,102143.58
2018-12-06T22:48:03.414Z,102141.55
2018-12-06T22:50:42.521Z,102156.91
2018-12-06T22:53:16.460Z,102140.45
2018-12-06T22:56:05.440Z,102145.58
2018-12-06T22:58:42.511Z,102139.20
2018-12-06T23:04:15.185Z,102135.55
2018-12-06T23:06:53.004Z,102138.01
2018-12-06T23:09:54.755Z,102142.95
2018-12-06T23:12:37.034Z,102138.26
2018-12-06T23:15:08.621Z,102141.25
2018-12-06T23:17:48.402Z,102137.47
2018-12-06T23:20:26.587Z,102136.88
2018-12-06T23:23:02.334Z,102148.70
2018-12-06T23:25:36.170Z,102136.83
2018-12-06T23:28:18.827Z,102129.72
2018-12-06T23:30:52.724Z,102134.10
2018-12-06T23:33:31.802Z,102141.41
2018-12-06T23:36:09.030Z,102090.20
2018-12-06T23:38:49.456Z,102138.05
2018-12-06T23:41:29.100Z,102139.79
2018-12-06T23:44:10.032Z,102140.12
2018-12-06T23:46:50.128Z,102140.97
2018-12-06T23:49:29.431Z,102144.05
2018-12-06T23:52:01.522Z,102135.55
2018-12-06T23:54:31.267Z,102132.45
2018-12-06T23:57:00.082Z,102136.27
2018-12-06T23:59:28.986Z,102129.48
